createdAt,value
2022-08-20T00:02:20.535Z,20.60
2022-08-20T00:04:53.154Z,20.60
2022-08-20T00:07:25.127Z,20.50
2022-08-20T00:09:57.102Z,20.50
2022-08-20T00:12:29.565Z,20.40
2022-08-20T00:15:01.806Z,20.30
2022-08-20T00:17:39.215Z,20.30
2022-08-20T00:20:13.321Z,20.20
2022-08-20T00:22:45.751Z,20.20
2022-08-20T00:25:19.462Z,20.20
2022-08-20T00:27:51.677Z,20.10
2022-08-20T00:30:24.867Z,20.10
2022-08-20T00:33:07.142Z,20.00
2022-08-20T00:35:44.884Z,20.00
2022-08-20T00:38:20.444Z,20.00
2022-08-20T00:40:57.495Z,19.90
2022-08-20T00:43:43.745Z,19.90
2022-08-20T00:46:31.151Z,19.90
2022-08-20T00:49:08.261Z,19.90
2022-08-20T00:52:08.211Z,19.90
2022-08-20T00:54:51.743Z,19.90
2022-08-20T00:57:29.858Z,19.80
2022-08-20T01:00:31.262Z,19.80
2022-08-20T01:03:09.986Z,19.80
2022-08-20T01:05:47.981Z,19.80
2022-08-20T01:08:24.080Z,19.80
2022-08-20T01:11:08.743Z,19.80
2022-08-20T01:13:45.106Z,19.80
2022-08-20T01:16:25.187Z,19.80
2022-08-20T01:19:02.691Z,19.70
2022-08-20T01:21:37.585Z,19.70
2022-08-20T01:24:21.076Z,19.70
2022-08-20T01:27:07.059Z,19.70
2022-08-20T01:29:40.418Z,19.70
2022-08-20T01:32:12.503Z,19.70
2022-08-20T01:34:44.623Z,19.70
2022-08-20T01:37:16.762Z,19.70
2022-08-20T01:39:48.831Z,19.70
2022-08-20T01:42:27.735Z,19.70
2022-08-20T01:45:07.202Z,19.70
2022-08-20T01:47:39.479Z,19.70
2022-08-20T01:50:24.036Z,19.70
2022-08-20T01:53:04.478Z,19.70
2022-08-20T01:55:45.620Z,19.70
2022-08-20T01:58:18.913Z,19.70
2022-08-20T02:00:51.254Z,19.70
2022-08-20T02:03:23.839Z,19.70
2022-08-20T02:05:59.417Z,19.70
2022-08-20T02:08:33.404Z,19.70
2022-08-20T02:11:05.535Z,19.60
2022-08-20T02:13:38.351Z,19.60
2022-08-20T02:16:11.544Z,19.60
2022-08-20T02:18:43.775Z,19.60
2022-08-20T02:21:16.246Z,19.60
2022-08-20T02:23:49.505Z,19.60
2022-08-20T02:26:22.395Z,19.50
2022-08-20T02:28:55.920Z,19.60
2022-08-20T02:31:38.076Z,19.50
2022-08-20T02:34:30.366Z,19.50
2022-08-20T02:37:05.143Z,19.50
2022-08-20T02:39:38.181Z,19.50
2022-08-20T02:42:12.126Z,19.50
2022-08-20T02:44:44.210Z,19.50
2022-08-20T02:47:17.151Z,19.50
2022-08-20T02:49:49.463Z,19.50
2022-08-20T02:52:22.130Z,19.50
2022-08-20T02:54:54.133Z,19.50
2022-08-20T02:57:28.301Z,19.60
2022-08-20T03:00:22.095Z,19.60
2022-08-20T03:02:54.198Z,19.60
2022-08-20T03:05:26.405Z,19.60
2022-08-20T03:07:58.484Z,19.60
2022-08-20T03:10:33.657Z,19.60
2022-08-20T03:13:11.301Z,19.60
2022-08-20T03:15:48.290Z,19.60
2022-08-20T03:18:25.674Z,19.60
2022-08-20T03:21:06.957Z,19.60
2022-08-20T03:23:43.361Z,19.60
2022-08-20T03:26:16.468Z,19.60
2022-08-20T03:28:49.415Z,19.60
2022-08-20T03:31:21.479Z,19.60
2022-08-20T03:33:53.941Z,19.60
2022-08-20T03:36:28.998Z,19.60
2022-08-20T03:39:05.067Z,19.60
2022-08-20T03:41:38.805Z,19.60
2022-08-20T03:44:10.980Z,19.60
2022-08-20T03:46:43.215Z,19.60
2022-08-20T03:49:15.200Z,19.60
2022-08-20T03:51:58.232Z,19.60
2022-08-20T03:54:33.320Z,19.60
2022-08-20T03:57:12.653Z,19.60
2022-08-20T03:59:46.675Z,19.60
2022-08-20T04:02:28.126Z,19.60
2022-08-20T04:05:00.151Z,19.60
2022-08-20T04:07:32.243Z,19.60
2022-08-20T04:10:09.300Z,19.60
2022-08-20T04:12:53.017Z,19.60
2022-08-20T04:15:25.370Z,19.60
2022-08-20T04:17:57.997Z,19.60
2022-08-20T04:20:30.207Z,19.60
2022-08-20T04:23:02.497Z,19.60
2022-08-20T04:25:43.287Z,19.60
2022-08-20T04:28:27.315Z,19.60
2022-08-20T04:31:01.098Z,19.60
2022-08-20T04:33:33.352Z,19.60
2022-08-20T04:36:06.295Z,19.70
2022-08-20T04:38:48.256Z,19.70
2022-08-20T04:41:24.410Z,19.70
2022-08-20T04:43:57.116Z,19.70
2022-08-20T04:46:29.229Z,19.70
2022-08-20T04:49:03.725Z,19.70
2022-08-20T04:51:37.170Z,19.70
2022-08-20T04:54:09.786Z,19.70
2022-08-20T04:56:42.449Z,19.70
2022-08-20T04:59:15.021Z,19.70
2022-08-20T05:01:47.290Z,19.70
2022-08-20T05:04:19.397Z,19.80
2022-08-20T05:06:51.424Z,19.80
2022-08-20T05:09:23.443Z,19.80
2022-08-20T05:11:55.560Z,19.80
2022-08-20T05:14:27.914Z,19.80
2022-08-20T05:17:09.574Z,19.80
2022-08-20T05:19:52.386Z,19.80
2022-08-20T05:22:24.602Z,19.80
2022-08-20T05:25:02.567Z,19.90
2022-08-20T05:27:34.944Z,19.90
2022-08-20T05:30:10.228Z,19.90
2022-08-20T05:32:46.962Z,19.90
2022-08-20T05:35:19.963Z,19.90
2022-08-20T05:37:52.178Z,19.90
2022-08-20T05:40:25.013Z,19.90
2022-08-20T05:42:57.367Z,19.90
2022-08-20T05:45:29.679Z,19.90
2022-08-20T05:48:08.354Z,19.90
2022-08-20T05:50:49.210Z,19.90
2022-08-20T05:53:23.663Z,19.90
2022-08-20T05:55:55.878Z,19.90
2022-08-20T05:58:31.069Z,20.00
2022-08-20T06:01:04.447Z,20.10
2022-08-20T06:03:55.352Z,20.20
2022-08-20T06:06:47.750Z,20.30
2022-08-20T06:09:30.987Z,20.40
2022-08-20T06:12:06.515Z,20.60
2022-08-20T06:14:40.138Z,20.80
2022-08-20T06:17:15.233Z,20.90
2022-08-20T06:19:49.011Z,21.00
2022-08-20T06:22:26.629Z,21.00
2022-08-20T06:24:59.487Z,21.10
2022-08-20T06:27:32.774Z,21.10
2022-08-20T06:30:12.438Z,21.10
2022-08-20T06:32:45.817Z,21.10
2022-08-20T06:35:20.078Z,21.10
2022-08-20T06:37:53.160Z,21.10
2022-08-20T06:40:28.625Z,21.10
2022-08-20T06:43:01.658Z,21.10
2022-08-20T06:45:33.697Z,21.10
2022-08-20T06:48:15.309Z,21.10
2022-08-20T06:50:48.295Z,21.10
2022-08-20T06:53:21.508Z,21.10
2022-08-20T06:55:56.913Z,21.10
2022-08-20T06:58:38.481Z,21.00
2022-08-20T07:01:12.324Z,21.00
2022-08-20T07:03:54.939Z,21.00
2022-08-20T07:06:31.063Z,21.00
2022-08-20T07:09:03.668Z,21.00
2022-08-20T07:11:35.832Z,20.90
2022-08-20T07:14:07.963Z,20.90
2022-08-20T07:16:40.354Z,20.90
2022-08-20T07:19:12.998Z,21.00
2022-08-20T07:21:45.481Z,21.00
2022-08-20T07:24:19.291Z,21.10
2022-08-20T07:26:52.093Z,21.10
2022-08-20T07:29:49.603Z,21.10
2022-08-20T07:32:41.781Z,21.20
2022-08-20T07:35:19.063Z,21.30
2022-08-20T07:37:52.003Z,21.40
2022-08-20T07:40:29.568Z,21.50
2022-08-20T07:43:04.850Z,21.70
2022-08-20T07:45:37.935Z,21.90
2022-08-20T07:48:13.682Z,22.10
2022-08-20T07:51:05.580Z,22.40
2022-08-20T07:53:40.420Z,22.70
2022-08-20T07:56:17.374Z,22.90
2022-08-20T07:58:55.614Z,23.10
2022-08-20T08:01:32.070Z,23.30
2022-08-20T08:04:24.645Z,23.50
2022-08-20T08:07:00.004Z,23.60
2022-08-20T08:09:34.349Z,23.60
2022-08-20T08:12:07.609Z,23.60
2022-08-20T08:14:41.375Z,23.60
2022-08-20T08:17:17.962Z,23.50
2022-08-20T08:19:50.892Z,23.40
2022-08-20T08:22:23.282Z,23.40
2022-08-20T08:24:59.618Z,23.50
2022-08-20T08:27:34.264Z,23.50
2022-08-20T08:30:08.905Z,23.60
2022-08-20T08:33:00.707Z,23.70
2022-08-20T08:35:54.245Z,23.80
2022-08-20T08:38:31.388Z,24.00
2022-08-20T08:41:14.190Z,24.10
2022-08-20T08:44:12.365Z,24.40
2022-08-20T08:46:49.577Z,24.60
2022-08-20T08:49:37.546Z,25.10
2022-08-20T08:52:18.825Z,25.20
2022-08-20T08:55:02.921Z,25.00
2022-08-20T08:57:37.093Z,24.90
2022-08-20T09:00:16.381Z,25.00
2022-08-20T09:03:07.729Z,25.30
2022-08-20T09:05:53.723Z,25.80
2022-08-20T09:08:42.424Z,25.90
2022-08-20T09:11:21.966Z,26.10
2022-08-20T09:13:55.619Z,26.30
2022-08-20T09:16:30.070Z,26.30
2022-08-20T09:19:21.914Z,26.10
2022-08-20T09:21:54.196Z,25.80
2022-08-20T09:24:26.517Z,25.60
2022-08-20T09:26:58.599Z,25.40
2022-08-20T09:29:32.949Z,25.30
2022-08-20T09:32:12.094Z,25.00
2022-08-20T09:34:55.866Z,24.90
2022-08-20T09:37:37.475Z,24.80
2022-08-20T09:40:10.966Z,24.80
2022-08-20T09:42:43.435Z,24.70
2022-08-20T09:45:16.043Z,24.70
2022-08-20T09:47:57.000Z,24.70
2022-08-20T09:50:32.407Z,24.70
2022-08-20T09:53:06.512Z,24.70
2022-08-20T09:55:48.960Z,24.60
2022-08-20T09:58:50.829Z,24.50
2022-08-20T10:01:25.757Z,24.40
2022-08-20T10:03:57.954Z,24.30
2022-08-20T10:06:32.533Z,24.50
2022-08-20T10:09:11.245Z,24.60
2022-08-20T10:11:43.419Z,24.60
2022-08-20T10:14:15.454Z,24.70
2022-08-20T10:16:54.606Z,24.80
2022-08-20T10:19:31.917Z,24.80
2022-08-20T10:22:04.775Z,24.80
2022-08-20T10:24:36.801Z,24.80
2022-08-20T10:27:09.088Z,24.70
2022-08-20T10:29:45.101Z,24.70
2022-08-20T10:32:19.119Z,24.90
2022-08-20T10:34:53.367Z,25.10
2022-08-20T10:37:26.119Z,25.30
2022-08-20T10:39:58.417Z,25.50
2022-08-20T10:42:30.758Z,25.80
2022-08-20T10:45:02.988Z,25.90
2022-08-20T10:47:35.492Z,26.00
2022-08-20T10:50:11.661Z,26.10
2022-08-20T10:52:47.250Z,26.10
2022-08-20T10:55:20.352Z,25.90
2022-08-20T10:57:52.535Z,25.90
2022-08-20T11:00:24.891Z,26.00
2022-08-20T11:02:57.169Z,26.10
2022-08-20T11:05:29.252Z,26.10
2022-08-20T11:08:03.964Z,26.00
2022-08-20T11:10:38.270Z,26.00
2022-08-20T11:13:12.621Z,25.80
2022-08-20T11:15:45.631Z,25.70
2022-08-20T11:18:17.761Z,25.60
2022-08-20T11:20:50.108Z,25.50
2022-08-20T11:23:23.181Z,25.40
2022-08-20T11:25:55.568Z,25.30
2022-08-20T11:28:31.281Z,25.30
2022-08-20T11:31:04.451Z,25.20
2022-08-20T11:33:36.520Z,25.20
2022-08-20T11:36:09.888Z,25.30
2022-08-20T11:38:42.012Z,25.20
2022-08-20T11:41:14.133Z,25.20
2022-08-20T11:44:04.659Z,25.20
2022-08-20T11:46:41.258Z,25.20
2022-08-20T11:49:13.400Z,25.10
2022-08-20T11:51:49.246Z,25.10
2022-08-20T11:54:22.234Z,25.20
2022-08-20T11:56:57.916Z,25.20
2022-08-20T11:59:30.328Z,25.10
2022-08-20T12:02:03.679Z,25.00
2022-08-20T12:04:35.884Z,25.00
2022-08-20T12:07:16.656Z,25.00
2022-08-20T12:09:55.356Z,25.00
2022-08-20T12:12:27.868Z,25.00
2022-08-20T12:15:00.202Z,25.10
2022-08-20T12:17:32.894Z,25.00
2022-08-20T12:20:09.959Z,25.00
2022-08-20T12:22:44.634Z,25.00
2022-08-20T12:25:16.972Z,24.90
2022-08-20T12:27:49.151Z,24.90
2022-08-20T12:30:23.469Z,24.90
2022-08-20T12:32:55.839Z,24.80
2022-08-20T12:35:28.140Z,24.80
2022-08-20T12:38:09.543Z,24.70
2022-08-20T12:40:41.740Z,24.70
2022-08-20T12:43:13.840Z,24.70
2022-08-20T12:45:45.905Z,24.60
2022-08-20T12:48:17.951Z,24.50
2022-08-20T12:50:52.859Z,24.30
2022-08-20T12:53:25.025Z,24.00
2022-08-20T12:55:57.175Z,23.60
2022-08-20T12:58:29.379Z,23.30
2022-08-20T13:01:01.586Z,23.10
2022-08-20T13:03:34.696Z,22.90
2022-08-20T13:06:17.214Z,22.70
2022-08-20T13:08:49.228Z,22.60
2022-08-20T13:11:21.365Z,22.60
2022-08-20T13:13:53.512Z,22.70
2022-08-20T13:16:25.745Z,22.80
2022-08-20T13:18:57.921Z,23.00
2022-08-20T13:21:30.073Z,23.20
2022-08-20T13:24:02.660Z,23.40
2022-08-20T13:26:35.223Z,23.50
2022-08-20T13:29:07.488Z,23.60
2022-08-20T13:31:40.385Z,23.70
2022-08-20T13:34:13.307Z,23.90
2022-08-20T13:36:45.620Z,24.30
2022-08-20T13:39:17.753Z,24.60
2022-08-20T13:41:50.417Z,24.80
2022-08-20T13:44:28.530Z,25.10
2022-08-20T13:47:15.026Z,25.20
2022-08-20T13:50:05.464Z,25.40
2022-08-20T13:52:44.648Z,25.40
2022-08-20T13:55:21.684Z,25.50
2022-08-20T13:57:56.974Z,25.40
2022-08-20T14:00:32.549Z,25.30
2022-08-20T14:03:06.658Z,25.10
2022-08-20T14:05:39.416Z,25.00
2022-08-20T14:08:15.706Z,24.90
2022-08-20T14:10:51.907Z,24.80
2022-08-20T14:13:25.927Z,24.80
2022-08-20T14:15:58.709Z,24.80
2022-08-20T14:18:30.852Z,24.70
2022-08-20T14:21:03.081Z,24.70
2022-08-20T14:23:36.889Z,24.80
2022-08-20T14:26:09.229Z,24.90
2022-08-20T14:28:41.557Z,24.80
2022-08-20T14:31:15.793Z,24.90
2022-08-20T14:33:47.800Z,24.90
2022-08-20T14:36:22.344Z,24.90
2022-08-20T14:38:54.350Z,25.20
2022-08-20T14:41:26.813Z,25.40
2022-08-20T14:44:00.943Z,25.40
2022-08-20T14:46:37.466Z,25.50
2022-08-20T14:49:09.510Z,25.50
2022-08-20T14:51:41.648Z,25.50
2022-08-20T14:54:13.979Z,25.70
2022-08-20T14:56:46.064Z,25.90
2022-08-20T14:59:18.294Z,26.00
2022-08-20T15:01:50.591Z,26.10
2022-08-20T15:04:22.758Z,26.30
2022-08-20T15:06:57.753Z,26.30
2022-08-20T15:09:36.577Z,26.30
2022-08-20T15:12:08.698Z,26.30
2022-08-20T15:14:40.957Z,26.40
2022-08-20T15:17:19.686Z,26.60
2022-08-20T15:19:54.988Z,26.70
2022-08-20T15:22:27.485Z,26.80
2022-08-20T15:24:59.553Z,26.90
2022-08-20T15:27:31.793Z,27.00
2022-08-20T15:30:07.622Z,27.10
2022-08-20T15:32:44.727Z,27.20
2022-08-20T15:35:17.530Z,27.20
2022-08-20T15:37:50.664Z,27.20
2022-08-20T15:40:29.144Z,27.20
2022-08-20T15:43:04.681Z,27.20
2022-08-20T15:45:37.236Z,27.20
2022-08-20T15:48:14.045Z,27.30
2022-08-20T15:51:23.095Z,27.40
2022-08-20T15:54:25.033Z,27.30
2022-08-20T15:57:36.783Z,27.30
2022-08-20T16:00:51.526Z,27.30
2022-08-20T16:04:05.678Z,27.30
2022-08-20T16:06:52.576Z,27.30
2022-08-20T16:09:37.970Z,27.20
2022-08-20T16:12:36.494Z,27.20
2022-08-20T16:15:18.770Z,27.20
2022-08-20T16:18:23.052Z,27.10
2022-08-20T16:21:01.792Z,27.10
2022-08-20T16:23:42.579Z,27.00
2022-08-20T16:26:45.791Z,26.90
2022-08-20T16:30:06.104Z,26.90
2022-08-20T16:32:46.664Z,26.80
2022-08-20T16:35:41.994Z,26.60
2022-08-20T16:38:32.332Z,26.40
2022-08-20T16:41:16.269Z,26.30
2022-08-20T16:44:16.701Z,26.20
2022-08-20T16:47:29.589Z,26.30
2022-08-20T16:50:13.496Z,26.20
2022-08-20T16:52:53.251Z,26.20
2022-08-20T16:55:25.544Z,26.10
2022-08-20T16:57:58.162Z,26.00
2022-08-20T17:00:42.560Z,26.00
2022-08-20T17:03:34.945Z,25.90
2022-08-20T17:06:26.065Z,25.80
2022-08-20T17:09:10.986Z,25.80
2022-08-20T17:11:44.779Z,25.70
2022-08-20T17:14:19.163Z,25.60
2022-08-20T17:16:52.778Z,25.50
2022-08-20T17:19:29.890Z,25.40
2022-08-20T17:22:11.817Z,25.20
2022-08-20T17:24:49.558Z,25.10
2022-08-20T17:27:38.161Z,25.00
2022-08-20T17:30:28.788Z,24.80
2022-08-20T17:33:19.068Z,24.80
2022-08-20T17:36:20.064Z,24.60
2022-08-20T17:38:58.754Z,24.50
2022-08-20T17:41:36.019Z,24.50
2022-08-20T17:44:17.421Z,24.30
2022-08-20T17:46:54.299Z,24.20
2022-08-20T17:49:38.839Z,24.10
2022-08-20T17:52:26.768Z,24.10
2022-08-20T17:55:13.303Z,24.00
2022-08-20T17:57:48.441Z,23.90
2022-08-20T18:00:28.378Z,23.90
2022-08-20T18:03:07.041Z,23.80
2022-08-20T18:06:31.254Z,23.70
2022-08-20T18:09:36.555Z,23.60
2022-08-20T18:12:35.468Z,23.50
2022-08-20T18:15:31.178Z,23.40
2022-08-20T18:18:31.073Z,23.30
2022-08-20T18:21:48.692Z,23.30
2022-08-20T18:24:45.085Z,23.20
2022-08-20T18:27:26.763Z,23.10
2022-08-20T18:30:20.358Z,23.00
2022-08-20T18:33:08.951Z,22.90
2022-08-20T18:35:45.748Z,22.80
2022-08-20T18:38:28.928Z,22.80
2022-08-20T18:41:29.779Z,22.70
2022-08-20T18:44:13.885Z,22.60
2022-08-20T18:47:03.591Z,22.50
2022-08-20T18:49:39.639Z,22.40
2022-08-20T18:52:24.476Z,22.40
2022-08-20T18:55:03.044Z,22.30
2022-08-20T18:57:53.883Z,22.30
2022-08-20T19:00:48.980Z,22.20
2022-08-20T19:03:31.376Z,22.20
2022-08-20T19:06:48.296Z,22.10
2022-08-20T19:09:59.909Z,22.10
2022-08-20T19:13:16.133Z,22.00
2022-08-20T19:16:33.763Z,22.00
2022-08-20T19:19:17.143Z,22.00
2022-08-20T19:21:52.584Z,21.90
2022-08-20T19:24:31.888Z,21.90
2022-08-20T19:27:07.967Z,21.80
2022-08-20T19:29:49.971Z,21.80
2022-08-20T19:32:32.315Z,21.80
2022-08-20T19:35:07.634Z,21.80
2022-08-20T19:37:51.663Z,21.70
2022-08-20T19:40:38.934Z,21.70
2022-08-20T19:43:19.612Z,21.70
2022-08-20T19:45:56.146Z,21.70
2022-08-20T19:48:57.114Z,21.60
2022-08-20T19:52:04.016Z,21.50
2022-08-20T19:54:54.837Z,21.50
2022-08-20T19:57:28.091Z,21.40
2022-08-20T20:00:06.061Z,21.40
2022-08-20T20:02:41.933Z,21.40
2022-08-20T20:05:17.379Z,21.30
2022-08-20T20:07:53.641Z,21.30
2022-08-20T20:10:36.998Z,21.30
2022-08-20T20:13:14.654Z,21.20
2022-08-20T20:15:54.517Z,21.20
2022-08-20T20:18:32.521Z,21.10
2022-08-20T20:21:16.859Z,21.10
2022-08-20T20:24:01.337Z,21.10
2022-08-20T20:26:40.833Z,21.00
2022-08-20T20:29:27.396Z,21.00
2022-08-20T20:32:24.468Z,20.90
2022-08-20T20:35:01.957Z,20.90
2022-08-20T20:37:49.980Z,20.80
2022-08-20T20:40:52.479Z,20.80
2022-08-20T20:43:46.225Z,20.80
2022-08-20T20:46:32.046Z,20.70
2022-08-20T20:49:08.988Z,20.70
2022-08-20T20:52:03.363Z,20.70
2022-08-20T20:54:42.216Z,20.60
2022-08-20T20:57:15.981Z,20.60
2022-08-20T20:59:55.222Z,20.60
2022-08-20T21:02:29.288Z,20.50
2022-08-20T21:05:02.164Z,20.50
2022-08-20T21:07:34.752Z,20.50
2022-08-20T21:10:16.624Z,20.50
2022-08-20T21:12:53.222Z,20.40
2022-08-20T21:15:26.864Z,20.40
2022-08-20T21:18:01.425Z,20.40
2022-08-20T21:20:36.974Z,20.30
2022-08-20T21:23:10.026Z,20.30
2022-08-20T21:25:42.801Z,20.30
2022-08-20T21:28:15.369Z,20.20
2022-08-20T21:30:47.885Z,20.20
2022-08-20T21:33:31.559Z,20.20
2022-08-20T21:36:04.351Z,20.10
2022-08-20T21:38:37.678Z,20.10
2022-08-20T21:41:10.363Z,20.00
2022-08-20T21:43:45.294Z,20.00
2022-08-20T21:46:24.861Z,19.90
2022-08-20T21:49:00.217Z,19.90
2022-08-20T21:51:36.067Z,19.80
2022-08-20T21:54:08.184Z,19.80
2022-08-20T21:56:41.636Z,19.70
2022-08-20T21:59:16.128Z,19.70
2022-08-20T22:01:51.423Z,19.70
2022-08-20T22:04:23.840Z,19.60
2022-08-20T22:06:56.287Z,19.60
2022-08-20T22:09:28.727Z,19.60
2022-08-20T22:12:02.080Z,19.50
2022-08-20T22:14:36.150Z,19.50
2022-08-20T22:17:08.314Z,19.40
2022-08-20T22:19:40.444Z,19.40
2022-08-20T22:22:15.574Z,19.40
2022-08-20T22:24:49.224Z,19.30
2022-08-20T22:27:21.302Z,19.30
2022-08-20T22:29:53.413Z,19.20
2022-08-20T22:32:33.273Z,19.10
2022-08-20T22:35:20.494Z,19.00
2022-08-20T22:37:52.706Z,19.00
2022-08-20T22:40:25.954Z,19.00
2022-08-20T22:42:58.180Z,18.90
2022-08-20T22:45:30.543Z,18.90
2022-08-20T22:48:03.785Z,18.80
2022-08-20T22:50:38.019Z,18.80
2022-08-20T22:53:11.348Z,18.80
2022-08-20T22:55:44.212Z,18.70
2022-08-20T22:58:18.564Z,18.70
2022-08-20T23:01:04.617Z,18.60
2022-08-20T23:03:40.005Z,18.60
2022-08-20T23:06:13.667Z,18.60
2022-08-20T23:08:46.151Z,18.50
2022-08-20T23:11:18.263Z,18.50
2022-08-20T23:13:50.357Z,18.40
2022-08-20T23:16:23.885Z,18.30
2022-08-20T23:18:56.162Z,18.30
2022-08-20T23:21:28.319Z,18.20
2022-08-20T23:24:00.530Z,18.20
2022-08-20T23:26:32.608Z,18.10
2022-08-20T23:29:05.155Z,18.10
2022-08-20T23:31:37.135Z,18.00
2022-08-20T23:34:09.984Z,18.00
2022-08-20T23:36:42.864Z,18.00
2022-08-20T23:39:14.880Z,17.90
2022-08-20T23:41:47.996Z,17.90
2022-08-20T23:44:26.274Z,17.80
2022-08-20T23:47:02.145Z,17.80
2022-08-20T23:49:35.212Z,17.70
2022-08-20T23:52:07.672Z,17.70
2022-08-20T23:54:39.753Z,17.70
2022-08-20T23:57:12.230Z,17.60
2022-08-20T23:59:46.699Z,17.60
